Time;durP1;ratioP1;P1;durP2;ratioP2;P2;SDS_P1;SDS_P2;PMS_P1;PMS_P2;Temp;Humidity;BMP_temperature;BMP_pressure;BME280_temperature;BME280_humidity;BME280_pressure;Samples;Min_cycle;Max_cycle;Signal;HPM_P1;HPM_P2
2021/04/30 00:01:37;;;;;;;3.05;2.83;;;;;;;12.61;61.16;99262.22;1706869;82;21530;-53
2021/04/30 00:04:04;;;;;;;3.55;2.95;;;;;;;12.63;61.18;99256.73;1704533;82;21526;-52
2021/04/30 00:06:33;;;;;;;2.83;2.62;;;;;;;12.64;61.15;99261.16;1706791;82;22385;-53
2021/04/30 00:09:02;;;;;;;3.47;3.17;;;;;;;12.64;61.15;99260.69;1706846;82;21546;-53
2021/04/30 00:11:29;;;;;;;5.95;3.20;;;;;;;12.65;61.12;99260.20;1707674;82;21123;-53
2021/04/30 00:13:57;;;;;;;5.42;2.98;;;;;;;12.66;61.11;99255.19;1698669;82;21183;-54
2021/04/30 00:16:25;;;;;;;2.72;2.52;;;;;;;12.66;61.08;99257.89;1691277;82;21850;-53
2021/04/30 00:18:53;;;;;;;4.80;3.17;;;;;;;12.64;61.08;99256.64;1695463;82;21210;-54
2021/04/30 00:21:21;;;;;;;4.17;3.77;;;;;;;12.63;61.16;99258.95;1688947;82;21196;-53
2021/04/30 00:23:49;;;;;;;4.47;2.52;;;;;;;12.63;61.11;99254.03;1693180;82;21713;-53
2021/04/30 00:26:16;;;;;;;3.35;3.02;;;;;;;12.62;61.13;99247.76;1694319;82;21265;-54
2021/04/30 00:28:43;;;;;;;3.77;3.47;;;;;;;12.63;61.15;99250.84;1693714;82;21137;-54
2021/04/30 00:31:11;;;;;;;4.22;3.75;;;;;;;12.63;61.16;99254.03;1689265;82;21362;-54
2021/04/30 00:33:38;;;;;;;3.50;2.47;;;;;;;12.62;61.17;99243.70;1692734;82;21151;-54
2021/04/30 00:36:05;;;;;;;2.95;2.75;;;;;;;12.62;61.17;99254.51;1658040;84;21447;-53
2021/04/30 00:38:32;;;;;;;3.70;3.08;;;;;;;12.63;61.24;99244.58;1654294;84;21217;-54
2021/04/30 00:40:59;;;;;;;3.58;3.37;;;;;;;12.61;61.22;99250.55;1654282;84;21234;-54
2021/04/30 00:43:27;;;;;;;3.30;3.05;;;;;;;12.60;61.26;99247.47;1653916;84;21678;-53
2021/04/30 00:45:54;;;;;;;3.62;3.42;;;;;;;12.59;61.33;99247.94;1651497;84;21241;-53
2021/04/30 00:48:21;;;;;;;4.08;3.77;;;;;;;12.59;61.31;99243.06;1653544;84;21207;-52
2021/04/30 00:50:49;;;;;;;3.05;2.75;;;;;;;12.59;61.35;99240.36;1655859;84;21215;-52
2021/04/30 00:53:17;;;;;;;3.67;2.22;;;;;;;12.60;61.33;99248.33;1653899;84;21247;-53
2021/04/30 00:55:45;;;;;;;3.17;1.70;;;;;;;12.64;61.37;99247.66;1692527;82;22552;-52
2021/04/30 00:58:12;;;;;;;1.95;1.75;;;;;;;12.67;61.34;99243.42;1690484;82;21239;-51
2021/04/30 01:00:40;;;;;;;2.92;1.85;;;;;;;12.68;61.29;99241.08;1691056;82;21223;-52
2021/04/30 01:03:08;;;;;;;2.47;2.37;;;;;;;12.69;61.23;99241.47;1687873;82;21250;-52
2021/04/30 01:05:37;;;;;;;3.85;3.17;;;;;;;12.71;61.19;99240.41;1692806;82;21257;-53
2021/04/30 01:08:05;;;;;;;3.77;3.05;;;;;;;12.70;61.19;99238.67;1692542;82;21631;-52
2021/04/30 01:10:33;;;;;;;2.60;2.47;;;;;;;12.69;61.23;99239.64;1687785;82;21211;-52
2021/04/30 01:13:01;;;;;;;3.45;3.15;;;;;;;12.69;61.15;99239.64;1655329;84;21329;-52
2021/04/30 01:15:30;;;;;;;2.95;2.10;;;;;;;12.68;61.13;99231.63;1695422;82;21232;-53
2021/04/30 01:18:00;;;;;;;4.05;3.08;;;;;;;12.67;61.11;99229.45;1692335;82;21275;-53
2021/04/30 01:20:27;;;;;;;3.25;2.95;;;;;;;12.67;61.14;99232.15;1695792;82;21214;-51
2021/04/30 01:22:55;;;;;;;2.80;2.60;;;;;;;12.65;61.14;99222.41;1695198;82;21168;-51
2021/04/30 01:25:27;;;;;;;3.62;3.35;;;;;;;12.63;61.22;99227.03;1658402;84;21111;-53
2021/04/30 01:27:55;;;;;;;2.77;2.22;;;;;;;12.60;61.27;99228.08;1653565;84;21236;-52
2021/04/30 01:30:25;;;;;;;3.85;3.58;;;;;;;12.58;61.31;99230.04;1654113;84;22379;-53
2021/04/30 01:32:53;;;;;;;3.30;3.00;;;;;;;12.56;61.34;99223.86;1656113;84;21927;-53
2021/04/30 01:35:32;;;;;;;3.62;2.62;;;;;;;12.54;61.44;99216.82;1657637;84;21201;-54
2021/04/30 01:38:00;;;;;;;2.90;2.70;;;;;;;12.52;61.49;99219.61;1656169;84;22033;-53
2021/04/30 01:40:30;;;;;;;4.90;3.12;;;;;;;12.50;61.58;99225.63;1654352;84;21270;-53
2021/04/30 01:43:10;;;;;;;3.65;2.87;;;;;;;12.48;61.59;99208.16;1652599;84;21251;-53
2021/04/30 01:45:43;;;;;;;4.17;3.00;;;;;;;12.45;61.66;99219.62;1656338;84;22850;-54
2021/04/30 01:48:13;;;;;;;2.12;1.92;;;;;;;12.45;61.75;99206.13;1654766;84;21611;-54
2021/04/30 01:50:42;;;;;;;2.80;2.20;;;;;;;12.46;61.79;99205.17;1653302;84;22235;-53
2021/04/30 01:53:12;;;;;;;4.15;2.45;;;;;;;12.46;61.84;99205.17;1653184;84;21488;-55
2021/04/30 01:55:39;;;;;;;2.62;2.42;;;;;;;12.45;61.87;99200.73;1655993;84;21291;-53
2021/04/30 01:58:06;;;;;;;5.80;4.03;;;;;;;12.45;61.88;99197.55;1655831;84;21480;-54
2021/04/30 02:00:36;;;;;;;3.37;3.05;;;;;;;12.45;61.92;99198.03;1652295;84;21219;-52
2021/04/30 02:03:03;;;;;;;3.00;2.80;;;;;;;12.43;61.96;99187.81;1652767;84;22469;-53
2021/04/30 02:05:32;;;;;;;7.50;3.40;;;;;;;12.41;61.97;99190.64;1654935;84;21247;-54
2021/04/30 02:08:08;;;;;;;3.25;2.95;;;;;;;12.40;61.98;99188.91;1692537;82;21011;-54
2021/04/30 02:10:36;;;;;;;4.37;3.22;;;;;;;12.39;62.01;99185.81;1693435;82;21376;-54
2021/04/30 02:13:03;;;;;;;3.10;2.90;;;;;;;12.36;62.10;99186.00;1691402;82;21143;-53
2021/04/30 02:15:36;;;;;;;5.12;3.62;;;;;;;12.33;62.16;99175.91;1696410;82;21171;-52
2021/04/30 02:18:04;;;;;;;3.60;3.30;;;;;;;12.28;62.24;99185.63;1694467;82;21425;-53
2021/04/30 02:20:31;;;;;;;4.92;4.53;;;;;;;12.27;62.33;99181.67;1686491;82;21222;-53
2021/04/30 02:22:59;;;;;;;4.33;4.00;;;;;;;12.25;62.39;99176.37;1694787;82;22137;-53
2021/04/30 02:25:26;;;;;;;3.55;3.15;;;;;;;12.21;62.46;99177.55;1660640;84;21270;-52
2021/04/30 02:27:55;;;;;;;4.35;3.15;;;;;;;12.20;62.51;99192.00;1690935;82;21118;-53
2021/04/30 02:30:23;;;;;;;3.62;2.45;;;;;;;12.20;62.55;99187.08;1658867;84;21131;-53
2021/04/30 02:32:50;;;;;;;2.92;2.67;;;;;;;12.18;62.63;99185.83;1659115;84;21148;-53
2021/04/30 02:35:21;;;;;;;3.27;3.08;;;;;;;12.16;62.70;99186.43;1695219;82;21343;-53
2021/04/30 02:37:49;;;;;;;4.20;3.77;;;;;;;12.16;62.75;99194.52;1695215;82;21168;-54
2021/04/30 02:40:17;;;;;;;3.85;3.02;;;;;;;12.17;62.75;99196.23;1693621;82;21608;-53
2021/04/30 02:42:45;;;;;;;3.77;3.40;;;;;;;12.17;62.74;99194.88;1661922;84;21783;-53
2021/04/30 02:45:15;;;;;;;3.05;2.77;;;;;;;12.18;62.71;99193.05;1660810;84;21168;-53
2021/04/30 02:47:46;;;;;;;3.22;3.02;;;;;;;12.16;62.72;99188.26;1696590;82;22992;-53
2021/04/30 02:50:18;;;;;;;4.15;3.20;;;;;;;12.13;62.75;99188.83;1660217;84;21143;-53
2021/04/30 02:52:46;;;;;;;3.27;3.00;;;;;;;12.09;62.79;99190.45;1659202;84;21155;-51
2021/04/30 02:55:17;;;;;;;2.90;2.75;;;;;;;12.06;62.85;99183.44;1689273;82;21124;-53
2021/04/30 02:57:44;;;;;;;4.10;3.30;;;;;;;12.02;62.88;99190.45;1694172;82;21142;-54
2021/04/30 03:00:12;;;;;;;2.50;2.30;;;;;;;12.00;62.97;99189.68;1691310;82;21472;-54
2021/04/30 03:02:39;;;;;;;2.17;1.98;;;;;;;11.99;63.00;99187.46;1694237;82;21192;-53
2021/04/30 03:05:09;;;;;;;4.60;1.90;;;;;;;12.03;63.00;99189.02;1661046;84;21569;-53
2021/04/30 03:07:36;;;;;;;2.50;2.03;;;;;;;12.03;63.00;99177.36;1656344;84;22055;-53
2021/04/30 03:10:05;;;;;;;2.55;2.35;;;;;;;12.02;62.97;99185.94;1656702;84;21239;-52
2021/04/30 03:12:33;;;;;;;3.58;2.12;;;;;;;12.02;62.92;99182.37;1654257;84;21255;-53
2021/04/30 03:15:00;;;;;;;2.23;1.80;;;;;;;12.03;62.93;99179.58;1666585;84;21180;-54
2021/04/30 03:17:27;;;;;;;2.75;2.55;;;;;;;12.03;62.93;99187.67;1692034;82;21166;-52
2021/04/30 03:19:55;;;;;;;3.37;1.95;;;;;;;12.03;62.95;99186.80;1695731;82;21628;-52
2021/04/30 03:22:23;;;;;;;2.77;1.47;;;;;;;12.03;62.90;99194.89;1693711;82;21203;-52
2021/04/30 03:24:50;;;;;;;3.67;1.77;;;;;;;12.03;62.81;99189.50;1691718;82;21642;-54
2021/04/30 03:28:05;;;;;;;2.60;2.10;;;;;;;12.07;62.80;99186.53;1792426;78;22716;-54
2021/04/30 03:30:33;;;;;;;4.07;2.17;;;;;;;12.05;62.69;99180.84;1776556;79;21473;-54
2021/04/30 03:33:00;;;;;;;2.13;1.90;;;;;;;12.05;62.62;99189.80;1774928;79;21670;-53
2021/04/30 03:35:27;;;;;;;1.40;1.30;;;;;;;12.05;62.55;99183.05;1770420;79;21219;-54
2021/04/30 03:37:55;;;;;;;1.67;1.57;;;;;;;12.07;62.48;99183.83;1775167;79;21174;-54
2021/04/30 03:40:23;;;;;;;1.92;1.30;;;;;;;12.07;62.41;99186.53;1776260;79;21501;-52
2021/04/30 03:42:51;;;;;;;3.90;1.10;;;;;;;12.11;62.37;99186.70;1743552;79;21299;-55
2021/04/30 03:45:18;;;;;;;3.05;1.40;;;;;;;12.17;62.29;99193.53;1776223;79;21391;-54
2021/04/30 03:47:45;;;;;;;1.22;1.10;;;;;;;12.21;62.19;99196.43;1774000;79;21757;-53
2021/04/30 03:50:13;;;;;;;1.90;1.05;;;;;;;12.27;62.08;99193.33;1769140;79;21160;-54
2021/04/30 03:52:41;;;;;;;1.60;1.20;;;;;;;12.31;61.73;99201.63;1770852;79;21154;-54
2021/04/30 03:55:10;;;;;;;4.80;1.07;;;;;;;12.34;61.53;99192.45;1769965;79;21593;-54
2021/04/30 03:57:37;;;;;;;1.75;1.12;;;;;;;12.39;61.39;99193.91;1773531;79;21368;-53
2021/04/30 04:00:06;;;;;;;1.72;1.57;;;;;;;12.44;61.21;99187.72;1768521;79;23135;-53
2021/04/30 04:02:42;;;;;;;1.77;1.35;;;;;;;12.49;61.02;99186.09;1775708;79;21128;-54
2021/04/30 04:05:09;;;;;;;1.75;1.10;;;;;;;12.54;60.83;99187.99;1713319;81;21115;-55
2021/04/30 04:07:37;;;;;;;1.82;1.10;;;;;;;12.56;60.64;99182.02;1712948;81;21187;-55
2021/04/30 04:10:06;;;;;;;1.70;1.27;;;;;;;12.58;60.48;99173.83;1701584;82;21438;-53
2021/04/30 04:12:33;;;;;;;2.92;1.37;;;;;;;12.60;60.25;99175.91;1724307;82;21190;-53
2021/04/30 04:15:00;;;;;;;1.30;1.20;;;;;;;12.63;60.12;99177.95;1694667;82;21190;-53
2021/04/30 04:17:27;;;;;;;1.50;1.40;;;;;;;12.65;59.94;99184.12;1725014;81;21212;-53
2021/04/30 04:19:55;;;;;;;13.30;1.40;;;;;;;12.75;59.77;99180.33;1727211;81;21188;-53
2021/04/30 04:22:24;;;;;;;4.95;1.22;;;;;;;12.88;59.57;99174.00;1725297;81;21234;-54
2021/04/30 04:24:51;;;;;;;1.90;1.00;;;;;;;13.03;59.10;99168.53;1726258;81;21213;-52
2021/04/30 04:27:20;;;;;;;1.55;1.40;;;;;;;13.11;58.71;99166.17;1739477;81;21625;-52
2021/04/30 04:29:48;;;;;;;2.37;1.05;;;;;;;13.16;58.56;99166.78;1737475;80;21217;-52
2021/04/30 04:32:15;;;;;;;3.75;1.40;;;;;;;13.20;58.41;99159.70;1768201;80;21570;-54
2021/04/30 04:34:43;;;;;;;4.53;1.40;;;;;;;13.23;58.12;99155.45;1766133;80;21700;-53
2021/04/30 04:37:10;;;;;;;1.50;1.30;;;;;;;13.26;57.92;99155.73;1764209;80;21156;-53
2021/04/30 04:39:38;;;;;;;2.15;1.02;;;;;;;13.27;57.72;99152.55;1765459;80;21599;-53
2021/04/30 04:42:05;;;;;;;1.40;1.30;;;;;;;13.29;57.74;99154.15;1762487;80;21766;-54
2021/04/30 04:44:34;;;;;;;1.80;1.05;;;;;;;13.33;57.65;99139.95;1764045;80;21546;-54
2021/04/30 04:47:02;;;;;;;2.87;1.00;;;;;;;13.40;57.70;99151.58;1765285;79;21743;-54
2021/04/30 04:49:29;;;;;;;1.30;1.20;;;;;;;13.50;57.54;99154.03;1765714;80;21217;-54
2021/04/30 04:51:57;;;;;;;1.40;1.00;;;;;;;13.61;57.42;99155.96;1763725;80;21175;-55
2021/04/30 04:54:26;;;;;;;1.50;1.20;;;;;;;13.71;57.16;99153.48;1757932;80;21748;-54
2021/04/30 04:56:56;;;;;;;1.40;1.17;;;;;;;13.81;57.04;99153.22;1766836;79;21167;-55
2021/04/30 04:59:23;;;;;;;4.12;1.70;;;;;;;13.88;56.91;99156.73;1761238;80;21687;-54
2021/04/30 05:01:51;;;;;;;2.60;1.32;;;;;;;13.97;56.76;99152.02;1766918;80;21508;-54
2021/04/30 05:04:18;;;;;;;1.98;1.30;;;;;;;14.03;56.46;99155.63;1768176;79;21208;-54
2021/04/30 05:06:46;;;;;;;1.25;1.15;;;;;;;14.11;56.43;99155.11;1768219;80;21195;-53
2021/04/30 05:09:14;;;;;;;3.05;1.30;;;;;;;14.16;56.15;99146.16;1763212;80;21151;-54
2021/04/30 05:11:42;;;;;;;1.22;1.12;;;;;;;14.19;56.08;99147.78;1765528;80;21227;-54
2021/04/30 05:14:10;;;;;;;1.70;1.40;;;;;;;14.21;56.21;99143.09;1763903;80;21175;-54
2021/04/30 05:16:39;;;;;;;4.67;1.50;;;;;;;14.17;56.16;99147.89;1770828;80;21211;-53
2021/04/30 05:19:06;;;;;;;3.90;1.30;;;;;;;14.16;56.26;99146.16;1763470;79;21183;-54
2021/04/30 05:21:35;;;;;;;2.90;1.15;;;;;;;14.16;56.34;99144.80;1707511;82;21157;-54
2021/04/30 05:24:04;;;;;;;4.97;1.32;;;;;;;14.15;56.39;99141.71;1767674;79;21566;-54
2021/04/30 05:26:31;;;;;;;3.85;1.27;;;;;;;14.16;56.56;99150.70;1764280;80;21255;-54
2021/04/30 05:28:58;;;;;;;2.70;1.32;;;;;;;14.14;56.59;99146.74;1777040;79;21131;-54
2021/04/30 05:31:26;;;;;;;1.40;1.10;;;;;;;14.15;56.63;99144.42;1737055;81;21116;-54
2021/04/30 05:33:53;;;;;;;2.98;1.17;;;;;;;14.17;56.74;99148.37;1736972;82;21114;-54
2021/04/30 05:36:21;;;;;;;2.12;1.60;;;;;;;14.20;56.70;99141.39;1710789;82;22270;-54
2021/04/30 05:38:48;;;;;;;4.00;1.65;;;;;;;14.17;56.65;99138.90;1713952;82;21147;-54
2021/04/30 05:41:16;;;;;;;1.72;1.47;;;;;;;14.13;56.74;99145.01;1713326;82;21152;-54
2021/04/30 05:43:43;;;;;;;1.62;1.52;;;;;;;14.12;57.00;99141.92;1710717;82;21430;-54
2021/04/30 05:46:10;;;;;;;4.37;1.17;;;;;;;14.13;56.97;99140.08;1712898;82;21132;-54
2021/04/30 05:48:38;;;;;;;4.95;1.90;;;;;;;14.16;57.21;99142.58;1707378;82;21562;-54
2021/04/30 05:51:06;;;;;;;3.00;1.17;;;;;;;14.23;57.47;99150.62;1708519;83;21138;-54
2021/04/30 05:53:33;;;;;;;6.28;1.67;;;;;;;14.34;57.35;99147.52;1711734;82;21108;-54
2021/04/30 05:56:00;;;;;;;5.42;1.87;;;;;;;14.44;57.19;99140.12;1737679;82;21373;-54
2021/04/30 05:58:28;;;;;;;2.80;1.60;;;;;;;14.51;56.95;99134.63;1738096;82;21670;-54
2021/04/30 06:00:55;;;;;;;5.30;1.87;;;;;;;14.57;57.01;99127.38;1736952;80;21547;-54
2021/04/30 06:03:24;;;;;;;6.20;1.45;;;;;;;14.67;57.06;99123.02;1709956;82;21696;-54
2021/04/30 06:05:51;;;;;;;2.85;1.55;;;;;;;14.76;56.80;99125.03;1714618;83;21139;-54
2021/04/30 06:08:19;;;;;;;5.85;1.62;;;;;;;14.88;56.69;99126.84;1716064;81;21123;-53
2021/04/30 06:10:46;;;;;;;5.22;2.02;;;;;;;14.99;56.79;99126.86;1718387;82;21144;-54
2021/04/30 06:13:13;;;;;;;4.40;1.77;;;;;;;15.11;56.27;99132.72;1716993;82;21385;-54
2021/04/30 06:15:41;;;;;;;5.78;1.92;;;;;;;15.20;55.94;99133.86;1712473;83;21179;-54
2021/04/30 06:18:08;;;;;;;5.47;1.75;;;;;;;15.23;55.87;99133.60;1714248;83;21207;-53
2021/04/30 06:20:36;;;;;;;3.25;1.65;;;;;;;15.28;55.65;99135.98;1715644;82;21116;-54
2021/04/30 06:23:03;;;;;;;11.22;2.37;;;;;;;15.30;55.67;99128.59;1712243;83;21206;-54
2021/04/30 06:25:31;;;;;;;4.92;1.77;;;;;;;15.36;55.64;99130.33;1711272;83;21385;-55
2021/04/30 06:27:59;;;;;;;5.58;1.87;;;;;;;15.43;55.25;99130.71;1675925;83;21555;-54
2021/04/30 06:30:26;;;;;;;5.67;1.60;;;;;;;15.43;55.26;99134.30;1704530;82;21179;-55
2021/04/30 06:32:56;;;;;;;2.75;1.35;;;;;;;15.46;55.16;99135.91;1701173;82;21210;-55
2021/04/30 06:35:23;;;;;;;3.67;1.40;;;;;;;15.52;55.41;99132.71;1699667;82;21246;-55
2021/04/30 06:37:50;;;;;;;3.70;1.42;;;;;;;15.59;55.54;99129.05;1702753;82;21279;-54
2021/04/30 06:40:19;;;;;;;5.15;1.42;;;;;;;15.68;55.53;99125.62;1699826;82;22667;-54
2021/04/30 06:42:46;;;;;;;2.08;1.77;;;;;;;15.81;55.26;99127.75;1737759;80;21181;-54
2021/04/30 06:45:14;;;;;;;4.67;1.70;;;;;;;15.91;54.94;99124.64;1735683;80;21146;-55
2021/04/30 06:47:42;;;;;;;7.05;1.85;;;;;;;15.99;54.40;99122.18;1739587;80;21178;-55
2021/04/30 06:50:10;;;;;;;4.08;1.30;;;;;;;16.04;54.51;99124.05;1740734;80;21594;-53
2021/04/30 06:52:39;;;;;;;2.25;1.30;;;;;;;16.10;54.16;99128.11;1739829;81;21197;-54
2021/04/30 06:55:07;;;;;;;5.20;1.60;;;;;;;16.16;54.26;99134.42;1739400;80;21128;-54
2021/04/30 06:57:36;;;;;;;2.65;1.45;;;;;;;16.23;54.19;99127.02;1742277;80;21136;-54
2021/04/30 07:00:05;;;;;;;2.40;2.00;;;;;;;16.28;54.10;99133.41;1742346;81;21150;-55
2021/04/30 07:02:33;;;;;;;4.25;1.98;;;;;;;16.32;53.63;99136.27;1737373;81;22230;-55
2021/04/30 07:05:00;;;;;;;3.20;1.82;;;;;;;16.31;53.62;99130.95;1738155;80;21210;-55
2021/04/30 07:07:28;;;;;;;3.17;1.77;;;;;;;16.31;53.85;99120.09;1741751;80;21203;-53
2021/04/30 07:09:55;;;;;;;1.90;1.30;;;;;;;16.33;54.04;99130.34;1737125;80;21185;-54
2021/04/30 07:12:22;;;;;;;5.53;1.65;;;;;;;16.38;53.92;99125.38;1737282;81;21556;-55
2021/04/30 07:14:50;;;;;;;2.90;2.10;;;;;;;16.44;54.08;99130.30;1738048;80;21218;-53
2021/04/30 07:17:17;;;;;;;5.15;1.67;;;;;;;16.52;54.11;99130.05;1739620;80;21162;-53
2021/04/30 07:19:44;;;;;;;3.05;2.37;;;;;;;16.63;54.05;99125.98;1736413;80;21177;-52
2021/04/30 07:22:14;;;;;;;3.17;1.72;;;;;;;16.78;53.96;99121.61;1736243;80;21162;-53
2021/04/30 07:24:42;;;;;;;8.50;1.87;;;;;;;16.92;53.64;99109.11;1735291;80;21206;-52
2021/04/30 07:27:11;;;;;;;6.45;2.05;;;;;;;17.05;53.29;99108.92;1738062;80;21158;-53
2021/04/30 07:29:39;;;;;;;5.62;1.80;;;;;;;17.15;52.98;99112.09;1758113;80;21171;-53
2021/04/30 07:32:07;;;;;;;3.77;2.62;;;;;;;17.40;52.46;99106.27;1762254;80;21376;-53
2021/04/30 07:34:36;;;;;;;4.12;1.67;;;;;;;17.52;52.46;99104.86;1761276;80;21502;-54
2021/04/30 07:37:06;;;;;;;4.03;1.65;;;;;;;17.52;52.46;99104.86;1760704;80;21903;-53
2021/04/30 07:39:33;;;;;;;2.22;2.02;;;;;;;17.62;51.96;99113.95;1760406;80;23259;-52
2021/04/30 07:42:01;;;;;;;7.72;2.22;;;;;;;17.68;51.70;99098.47;1761228;80;21137;-53
2021/04/30 07:44:30;;;;;;;4.40;1.87;;;;;;;17.76;52.16;99097.30;1757512;80;21121;-53
2021/04/30 07:46:59;;;;;;;7.05;3.02;;;;;;;17.85;52.50;99083.38;1738782;80;21211;-53
2021/04/30 07:49:28;;;;;;;11.55;3.12;;;;;;;17.99;52.25;99085.22;1761690;79;21993;-54
2021/04/30 07:51:55;;;;;;;5.70;2.55;;;;;;;18.12;51.71;99085.83;1757568;79;21687;-53
2021/04/30 07:54:23;;;;;;;1.98;1.60;;;;;;;18.23;51.86;99078.06;1759894;80;21634;-53
2021/04/30 07:56:52;;;;;;;4.40;1.80;;;;;;;18.32;51.57;99073.64;1723299;81;21627;-52
2021/04/30 07:59:20;;;;;;;2.55;1.47;;;;;;;18.39;51.33;99071.59;1761787;80;21192;-53
2021/04/30 08:01:47;;;;;;;2.65;1.87;;;;;;;18.47;51.43;99073.61;1756867;80;21181;-54
2021/04/30 08:04:15;;;;;;;8.68;1.45;;;;;;;18.57;51.44;99075.03;1760712;80;22083;-54
2021/04/30 08:06:42;;;;;;;5.37;1.32;;;;;;;18.68;51.34;99077.64;1726581;82;21200;-53
2021/04/30 08:09:10;;;;;;;3.45;1.20;;;;;;;18.75;50.65;99066.52;1754423;79;21279;-53
2021/04/30 08:11:39;;;;;;;5.95;1.87;;;;;;;18.82;50.54;99069.89;1761545;79;21578;-53
2021/04/30 08:14:08;;;;;;;1.52;1.37;;;;;;;18.86;50.14;99072.72;1762010;79;21179;-53
2021/04/30 08:16:36;;;;;;;1.50;1.40;;;;;;;18.87;50.20;99068.98;1764208;80;21213;-53
2021/04/30 08:19:04;;;;;;;3.58;1.55;;;;;;;18.89;50.28;99069.68;1757828;80;21203;-53
2021/04/30 08:21:33;;;;;;;1.92;1.20;;;;;;;18.93;50.31;99063.95;1762898;79;21120;-53
2021/04/30 08:24:00;;;;;;;3.85;2.00;;;;;;;18.99;50.20;99068.33;1760444;80;21512;-53
2021/04/30 08:26:29;;;;;;;2.02;1.57;;;;;;;19.03;50.02;99054.77;1762946;79;21129;-53
2021/04/30 08:28:57;;;;;;;3.20;1.70;;;;;;;19.05;49.62;99056.86;1759546;80;21571;-53
2021/04/30 08:31:26;;;;;;;1.87;1.75;;;;;;;19.05;49.89;99051.91;1760907;79;21135;-53
2021/04/30 08:33:53;;;;;;;3.77;1.82;;;;;;;19.07;49.76;99053.97;1759795;79;21204;-53
2021/04/30 08:36:21;;;;;;;2.47;1.85;;;;;;;19.10;49.68;99041.41;1755982;79;21780;-54
2021/04/30 08:38:49;;;;;;;2.08;1.50;;;;;;;19.14;49.84;99045.05;1757847;79;21526;-53
2021/04/30 08:41:18;;;;;;;2.12;1.45;;;;;;;19.20;50.00;99035.45;1755872;79;21195;-53
2021/04/30 08:43:46;;;;;;;4.62;1.25;;;;;;;19.24;49.50;99039.59;1757923;79;21165;-53
2021/04/30 08:46:15;;;;;;;3.95;1.40;;;;;;;19.26;49.26;99026.17;1757569;80;21651;-54
2021/04/30 08:48:42;;;;;;;3.77;1.80;;;;;;;19.25;49.31;99036.72;1760918;79;21100;-53
2021/04/30 08:51:09;;;;;;;3.90;1.57;;;;;;;19.28;49.53;99039.67;1758430;80;21113;-53
2021/04/30 08:53:39;;;;;;;10.35;2.15;;;;;;;19.33;49.71;99037.35;1758026;79;22205;-53
2021/04/30 08:56:07;;;;;;;3.65;1.85;;;;;;;19.40;49.45;99033.02;1764051;80;21153;-54
2021/04/30 08:58:36;;;;;;;11.85;1.80;;;;;;;19.45;49.09;99036.19;1760815;80;21214;-53
2021/04/30 09:01:04;;;;;;;6.45;1.67;;;;;;;19.48;49.18;99034.55;1760594;79;21108;-53
2021/04/30 09:03:35;;;;;;;7.37;1.50;;;;;;;19.51;48.60;99028.80;1765353;80;21553;-53
2021/04/30 09:06:02;;;;;;;2.52;1.25;;;;;;;19.54;48.37;99029.02;1760351;80;22240;-54
2021/04/30 09:08:48;;;;;;;5.95;1.42;;;;;;;19.56;48.43;99031.11;1759596;80;21150;-53
2021/04/30 09:11:48;;;;;;;3.52;1.35;;;;;;;19.57;48.57;99032.30;1756376;80;21104;-54
2021/04/30 09:14:31;;;;;;;2.50;1.12;;;;;;;19.62;48.14;99031.37;1762238;80;21108;-54
2021/04/30 09:17:12;;;;;;;3.90;1.00;;;;;;;19.67;47.87;99025.45;1760638;80;21641;-53
2021/04/30 09:19:48;;;;;;;3.83;0.98;;;;;;;19.71;48.08;99020.56;1759969;80;21253;-53
2021/04/30 09:22:18;;;;;;;2.27;1.00;;;;;;;19.80;47.85;99014.20;1760803;80;21635;-53
2021/04/30 09:24:55;;;;;;;4.10;1.00;;;;;;;19.87;47.92;99023.01;1759653;79;21132;-53
2021/04/30 09:27:42;;;;;;;3.55;1.12;;;;;;;19.94;46.96;99021.89;1760037;80;21109;-53
2021/04/30 09:30:31;;;;;;;4.95;0.95;;;;;;;19.99;46.84;99016.83;1759820;79;21419;-52
2021/04/30 09:33:14;;;;;;;4.55;1.37;;;;;;;20.03;46.80;99010.06;1763134;80;21342;-54
2021/04/30 09:35:56;;;;;;;3.92;1.10;;;;;;;20.07;46.41;99017.46;1759992;80;21171;-53
2021/04/30 09:38:27;;;;;;;3.40;0.70;;;;;;;20.07;45.95;99005.17;1760650;80;21843;-52
2021/04/30 09:41:12;;;;;;;1.57;1.00;;;;;;;20.05;46.30;99005.31;1759057;79;21505;-52
2021/04/30 09:43:47;;;;;;;1.42;1.07;;;;;;;20.04;46.58;99015.89;1759994;80;21191;-53
2021/04/30 09:46:34;;;;;;;3.47;1.02;;;;;;;20.01;46.12;99018.91;1763403;79;21223;-53
2021/04/30 09:49:15;;;;;;;1.65;1.20;;;;;;;19.97;46.28;99012.05;1757946;80;21193;-54
2021/04/30 09:51:46;;;;;;;3.98;1.10;;;;;;;19.97;46.53;99003.84;1759010;79;21183;-53
2021/04/30 09:54:29;;;;;;;1.15;0.78;;;;;;;19.99;46.40;99002.66;1757824;80;21500;-54
2021/04/30 09:57:19;;;;;;;2.55;0.82;;;;;;;20.03;46.34;99000.50;1758695;79;21199;-53
2021/04/30 10:00:04;;;;;;;20.08;1.57;;;;;;;20.06;46.51;98997.48;1759352;79;22126;-54
2021/04/30 10:02:34;;;;;;;2.12;1.00;;;;;;;20.12;46.42;98995.49;1757383;79;21702;-53
2021/04/30 10:05:11;;;;;;;3.45;0.90;;;;;;;20.21;46.04;98990.98;1764845;79;21698;-54
2021/04/30 10:07:42;;;;;;;5.47;1.10;;;;;;;20.26;45.80;98990.86;1754028;79;21182;-54
2021/04/30 10:10:18;;;;;;;1.50;0.82;;;;;;;20.31;45.88;98987.69;1758900;80;21107;-54
2021/04/30 10:12:51;;;;;;;2.85;0.75;;;;;;;20.38;45.75;98976.02;1760639;80;21454;-54
2021/04/30 10:15:19;;;;;;;1.32;0.80;;;;;;;20.50;45.66;98974.44;1763326;79;21224;-53
2021/04/30 10:17:49;;;;;;;4.45;0.80;;;;;;;20.61;45.38;98974.19;1759568;79;21248;-53
2021/04/30 10:20:29;;;;;;;3.25;0.90;;;;;;;20.72;44.74;98973.45;1748550;79;21366;-53
2021/04/30 10:22:59;;;;;;;2.40;0.85;;;;;;;20.83;44.88;98968.77;1770256;78;21131;-54
2021/04/30 10:25:26;;;;;;;1.77;0.90;;;;;;;20.94;44.65;98965.76;1767152;79;21193;-53
2021/04/30 10:27:54;;;;;;;2.70;0.82;;;;;;;21.01;44.00;98958.13;1764120;78;21467;-54
2021/04/30 10:30:38;;;;;;;1.52;0.72;;;;;;;21.05;44.08;98958.16;1762097;79;21170;-54
2021/04/30 10:33:27;;;;;;;1.22;0.80;;;;;;;21.05;44.11;98951.33;1769302;78;21100;-53
2021/04/30 10:36:09;;;;;;;3.92;1.02;;;;;;;21.04;43.70;98961.92;1764300;79;21547;-53
2021/04/30 10:38:51;;;;;;;2.15;0.80;;;;;;;21.02;43.82;98957.61;1772150;79;21262;-54
2021/04/30 10:41:34;;;;;;;2.65;1.00;;;;;;;21.06;44.52;98954.41;1748022;80;21159;-54
2021/04/30 10:44:14;;;;;;;4.95;1.00;;;;;;;21.15;44.25;98944.39;1757716;80;21199;-53
2021/04/30 10:46:46;;;;;;;1.20;0.82;;;;;;;21.24;44.00;98940.72;1747328;80;21536;-53
2021/04/30 10:49:18;;;;;;;4.08;0.80;;;;;;;21.31;43.76;98942.30;1760666;80;21182;-53
2021/04/30 10:52:16;;;;;;;5.05;0.80;;;;;;;21.35;43.90;98945.91;1756371;79;21215;-54
2021/04/30 10:54:41;;;;;;;2.65;0.80;;;;;;;21.40;43.87;98939.45;1755622;80;21199;-53
2021/04/30 10:57:17;;;;;;;5.87;1.15;;;;;;;21.46;43.30;98930.58;1759421;79;21235;-53
2021/04/30 10:59:47;;;;;;;1.15;0.90;;;;;;;21.52;43.58;98923.62;1762675;79;21152;-53
2021/04/30 11:05:09;;;;;;;0.90;0.80;;;;;;;21.64;43.33;98922.80;1761464;80;21725;-54
2021/04/30 11:07:50;;;;;;;8.90;1.10;;;;;;;21.65;43.16;98925.38;1761984;79;22325;-53
2021/04/30 11:10:31;;;;;;;2.10;0.98;;;;;;;21.70;43.20;98923.50;1759743;80;21581;-54
2021/04/30 11:13:16;;;;;;;1.20;0.83;;;;;;;21.72;43.30;98914.11;1759705;80;21098;-54
2021/04/30 11:15:52;;;;;;;3.30;0.85;;;;;;;21.78;43.15;98923.54;1762064;80;21112;-53
2021/04/30 11:18:22;;;;;;;1.80;0.80;;;;;;;21.82;42.44;98915.35;1762957;80;21124;-53
2021/04/30 11:21:05;;;;;;;1.70;0.90;;;;;;;21.87;42.79;98918.44;1760539;80;21136;-53
2021/04/30 11:23:39;;;;;;;5.00;1.30;;;;;;;21.93;42.38;98922.42;1759148;80;21111;-53
2021/04/30 11:26:10;;;;;;;1.50;0.70;;;;;;;22.01;42.18;98909.64;1763073;79;21106;-53
2021/04/30 11:28:43;;;;;;;0.90;0.80;;;;;;;22.06;41.85;98911.86;1766563;79;21515;-54
2021/04/30 11:31:18;;;;;;;;;;;;;;;22.08;42.08;98916.67;1766680;79;21151;-54
2021/04/30 11:34:15;;;;;;;4.97;0.80;;;;;;;22.10;42.14;98905.90;1751776;80;20259;-53
2021/04/30 11:36:55;;;;;;;1.77;0.62;;;;;;;22.13;42.44;98904.17;1760978;80;21119;-54
2021/04/30 11:40:08;;;;;;;2.85;0.80;;;;;;;22.20;42.29;98889.31;1823160;77;28374;-52
2021/04/30 11:42:37;;;;;;;2.67;1.05;;;;;;;22.19;42.28;98895.81;1792884;78;20972;-52
2021/04/30 11:45:05;;;;;;;4.67;0.80;;;;;;;22.17;42.27;98896.48;1741555;80;21363;-52
2021/04/30 11:47:38;;;;;;;4.30;0.90;;;;;;;22.15;42.19;98884.83;1746630;81;20977;-53
2021/04/30 11:50:10;;;;;;;1.07;0.80;;;;;;;22.12;42.30;98890.13;1743556;80;21483;-52
2021/04/30 11:52:41;;;;;;;1.82;0.80;;;;;;;22.07;41.72;98892.52;1759796;80;21021;-56